sensor_id;sensor_type;location;lat;lon;timestamp;pressure;altitude;pressure_sealevel;temperature;humidity
16821;BME280;8527;49.740;6.604;2023-09-30T00:03:12;100675.25;;;14.44;97.19
16821;BME280;8527;49.740;6.604;2023-09-30T00:08:13;100674.69;;;14.57;95.85
16821;BME280;8527;49.740;6.604;2023-09-30T00:13:14;100675.88;;;14.55;97.47
16821;BME280;8527;49.740;6.604;2023-09-30T00:18:19;100681.09;;;14.40;97.13
16821;BME280;8527;49.740;6.604;2023-09-30T00:23:22;100679.72;;;14.44;96.13
16821;BME280;8527;49.740;6.604;2023-09-30T00:28:23;100687.88;;;14.51;97.18
16821;BME280;8527;49.740;6.604;2023-09-30T00:33:22;100698.63;;;14.42;96.35
16821;BME280;8527;49.740;6.604;2023-09-30T00:38:26;100698.63;;;14.26;96.41
16821;BME280;8527;49.740;6.604;2023-09-30T00:43:28;100704.97;;;14.00;100.00
16821;BME280;8527;49.740;6.604;2023-09-30T00:48:30;100704.31;;;14.14;100.00
16821;BME280;8527;49.740;6.604;2023-09-30T00:53:32;100700.31;;;14.18;99.77
16821;BME280;8527;49.740;6.604;2023-09-30T00:58:38;100699.97;;;14.13;98.54
16821;BME280;8527;49.740;6.604;2023-09-30T01:03:38;100708.47;;;14.09;98.97
16821;BME280;8527;49.740;6.604;2023-09-30T01:08:40;100712.00;;;14.09;99.10
16821;BME280;8527;49.740;6.604;2023-09-30T01:13:40;100698.16;;;14.05;100.00
16821;BME280;8527;49.740;6.604;2023-09-30T01:18:40;100684.50;;;14.00;100.00
16821;BME280;8527;49.740;6.604;2023-09-30T01:23:41;100686.31;;;14.00;99.61
16821;BME280;8527;49.740;6.604;2023-09-30T01:28:41;100689.00;;;13.91;98.64
16821;BME280;8527;49.740;6.604;2023-09-30T01:33:44;100687.97;;;13.76;98.42
16821;BME280;8527;49.740;6.604;2023-09-30T01:38:45;100699.31;;;13.70;98.91
16821;BME280;8527;49.740;6.604;2023-09-30T01:43:47;100694.13;;;13.68;99.29
16821;BME280;8527;49.740;6.604;2023-09-30T01:48:45;100709.28;;;13.51;99.78
16821;BME280;8527;49.740;6.604;2023-09-30T01:53:47;100716.94;;;13.46;99.21
16821;BME280;8527;49.740;6.604;2023-09-30T01:58:48;100703.63;;;13.46;99.03
16821;BME280;8527;49.740;6.604;2023-09-30T02:03:47;100708.63;;;13.49;99.84
16821;BME280;8527;49.740;6.604;2023-09-30T02:08:48;100725.78;;;13.46;99.63
16821;BME280;8527;49.740;6.604;2023-09-30T02:13:47;100722.13;;;13.56;99.03
16821;BME280;8527;49.740;6.604;2023-09-30T02:18:47;100704.13;;;13.58;98.92
16821;BME280;8527;49.740;6.604;2023-09-30T02:23:50;100701.97;;;13.61;98.44
16821;BME280;8527;49.740;6.604;2023-09-30T02:28:53;100698.50;;;13.61;100.00
16821;BME280;8527;49.740;6.604;2023-09-30T02:33:52;100696.63;;;13.61;100.00
16821;BME280;8527;49.740;6.604;2023-09-30T02:39:00;100709.47;;;13.58;100.00
16821;BME280;8527;49.740;6.604;2023-09-30T02:44:01;100721.28;;;13.63;100.00
16821;BME280;8527;49.740;6.604;2023-09-30T02:49:01;100713.31;;;13.63;100.00
16821;BME280;8527;49.740;6.604;2023-09-30T02:54:02;100702.63;;;13.63;100.00
16821;BME280;8527;49.740;6.604;2023-09-30T02:59:04;100707.66;;;13.67;100.00
16821;BME280;8527;49.740;6.604;2023-09-30T03:04:03;100715.13;;;13.55;100.00
16821;BME280;8527;49.740;6.604;2023-09-30T03:09:07;100720.63;;;13.61;100.00
16821;BME280;8527;49.740;6.604;2023-09-30T03:14:14;100712.00;;;13.68;100.00
16821;BME280;8527;49.740;6.604;2023-09-30T03:19:15;100719.81;;;13.69;100.00
16821;BME280;8527;49.740;6.604;2023-09-30T03:24:18;100728.00;;;13.68;100.00
16821;BME280;8527;49.740;6.604;2023-09-30T03:29:16;100720.81;;;13.76;100.00
16821;BME280;8527;49.740;6.604;2023-09-30T03:34:15;100724.16;;;13.78;100.00
16821;BME280;8527;49.740;6.604;2023-09-30T03:39:21;100721.97;;;13.74;100.00
16821;BME280;8527;49.740;6.604;2023-09-30T03:44:22;100732.13;;;13.70;100.00
16821;BME280;8527;49.740;6.604;2023-09-30T03:49:21;100742.81;;;13.70;100.00
16821;BME280;8527;49.740;6.604;2023-09-30T03:54:22;100745.16;;;13.73;100.00
16821;BME280;8527;49.740;6.604;2023-09-30T03:59:20;100751.31;;;13.74;100.00
16821;BME280;8527;49.740;6.604;2023-09-30T04:04:19;100756.47;;;13.67;100.00
16821;BME280;8527;49.740;6.604;2023-09-30T04:09:18;100755.97;;;13.63;100.00
16821;BME280;8527;49.740;6.604;2023-09-30T04:14:19;100738.66;;;13.68;100.00
16821;BME280;8527;49.740;6.604;2023-09-30T04:19:26;100730.66;;;13.68;100.00
16821;BME280;8527;49.740;6.604;2023-09-30T04:24:28;100736.28;;;13.64;100.00
16821;BME280;8527;49.740;6.604;2023-09-30T04:29:30;100740.31;;;13.69;100.00
16821;BME280;8527;49.740;6.604;2023-09-30T04:34:34;100733.66;;;13.73;100.00
16821;BME280;8527;49.740;6.604;2023-09-30T04:39:54;100732.13;;;13.70;100.00
16821;BME280;8527;49.740;6.604;2023-09-30T04:44:55;100741.50;;;13.74;100.00
16821;BME280;8527;49.740;6.604;2023-09-30T04:49:57;100737.66;;;13.69;100.00
16821;BME280;8527;49.740;6.604;2023-09-30T04:54:59;100742.78;;;13.54;100.00
16821;BME280;8527;49.740;6.604;2023-09-30T05:00:05;100761.13;;;13.57;100.00
16821;BME280;8527;49.740;6.604;2023-09-30T05:05:08;100767.47;;;13.64;100.00
16821;BME280;8527;49.740;6.604;2023-09-30T05:10:11;100765.13;;;13.69;100.00
16821;BME280;8527;49.740;6.604;2023-09-30T05:15:15;100789.47;;;13.66;100.00
16821;BME280;8527;49.740;6.604;2023-09-30T05:20:22;100786.28;;;13.54;100.00
16821;BME280;8527;49.740;6.604;2023-09-30T05:25:26;100799.28;;;13.57;100.00
16821;BME280;8527;49.740;6.604;2023-09-30T05:30:28;100797.97;;;13.61;100.00
16821;BME280;8527;49.740;6.604;2023-09-30T05:35:27;100793.28;;;13.63;100.00
16821;BME280;8527;49.740;6.604;2023-09-30T05:40:27;100789.63;;;13.56;100.00
16821;BME280;8527;49.740;6.604;2023-09-30T05:45:31;100800.09;;;13.58;100.00
16821;BME280;8527;49.740;6.604;2023-09-30T05:50:34;100803.97;;;13.55;100.00
16821;BME280;8527;49.740;6.604;2023-09-30T05:55:36;100809.97;;;13.57;100.00
16821;BME280;8527;49.740;6.604;2023-09-30T06:00:46;100813.50;;;13.74;100.00
16821;BME280;8527;49.740;6.604;2023-09-30T06:05:48;100809.09;;;13.57;100.00
16821;BME280;8527;49.740;6.604;2023-09-30T06:10:51;100813.44;;;13.58;100.00
16821;BME280;8527;49.740;6.604;2023-09-30T06:15:52;100813.94;;;13.53;100.00
16821;BME280;8527;49.740;6.604;2023-09-30T06:20:50;100803.16;;;13.63;100.00
16821;BME280;8527;49.740;6.604;2023-09-30T06:25:49;100807.13;;;13.59;100.00
16821;BME280;8527;49.740;6.604;2023-09-30T06:30:47;100808.31;;;13.73;100.00
16821;BME280;8527;49.740;6.604;2023-09-30T06:35:57;100808.00;;;13.68;100.00
16821;BME280;8527;49.740;6.604;2023-09-30T06:40:57;100807.63;;;13.54;100.00
16821;BME280;8527;49.740;6.604;2023-09-30T06:45:57;100807.44;;;13.56;100.00
16821;BME280;8527;49.740;6.604;2023-09-30T06:50:58;100792.25;;;13.48;100.00
16821;BME280;8527;49.740;6.604;2023-09-30T06:55:57;100798.31;;;13.67;100.00
16821;BME280;8527;49.740;6.604;2023-09-30T07:00:55;100810.16;;;13.72;100.00
16821;BME280;8527;49.740;6.604;2023-09-30T07:05:59;100814.13;;;13.68;100.00
16821;BME280;8527;49.740;6.604;2023-09-30T07:10:59;100815.16;;;13.75;100.00
16821;BME280;8527;49.740;6.604;2023-09-30T07:15:57;100828.50;;;13.75;100.00
16821;BME280;8527;49.740;6.604;2023-09-30T07:21:04;100826.31;;;13.71;100.00
16821;BME280;8527;49.740;6.604;2023-09-30T07:26:02;100824.69;;;13.78;100.00
16821;BME280;8527;49.740;6.604;2023-09-30T07:31:10;100826.53;;;13.86;100.00
16821;BME280;8527;49.740;6.604;2023-09-30T07:36:13;100838.56;;;13.98;100.00
16821;BME280;8527;49.740;6.604;2023-09-30T07:41:11;100837.38;;;13.92;100.00
16821;BME280;8527;49.740;6.604;2023-09-30T07:46:10;100835.22;;;13.88;100.00
16821;BME280;8527;49.740;6.604;2023-09-30T07:51:13;100844.41;;;13.93;100.00
16821;BME280;8527;49.740;6.604;2023-09-30T07:56:12;100853.75;;;14.14;100.00
16821;BME280;8527;49.740;6.604;2023-09-30T08:01:11;100856.28;;;14.24;100.00
16821;BME280;8527;49.740;6.604;2023-09-30T08:06:12;100849.72;;;14.02;100.00
16821;BME280;8527;49.740;6.604;2023-09-30T08:11:13;100850.88;;;13.91;100.00
16821;BME280;8527;49.740;6.604;2023-09-30T08:16:11;100854.75;;;14.13;100.00
16821;BME280;8527;49.740;6.604;2023-09-30T08:21:10;100854.78;;;14.30;100.00
16821;BME280;8527;49.740;6.604;2023-09-30T08:26:12;100855.94;;;14.11;100.00
16821;BME280;8527;49.740;6.604;2023-09-30T08:31:13;100858.75;;;14.09;100.00
16821;BME280;8527;49.740;6.604;2023-09-30T08:36:12;100858.19;;;13.81;100.00
16821;BME280;8527;49.740;6.604;2023-09-30T08:41:26;100864.91;;;14.01;100.00
16821;BME280;8527;49.740;6.604;2023-09-30T08:46:30;100872.63;;;14.13;100.00
16821;BME280;8527;49.740;6.604;2023-09-30T08:51:31;100866.94;;;14.16;100.00
16821;BME280;8527;49.740;6.604;2023-09-30T08:56:32;100863.94;;;14.19;100.00
16821;BME280;8527;49.740;6.604;2023-09-30T09:01:31;100858.44;;;14.04;100.00
16821;BME280;8527;49.740;6.604;2023-09-30T09:06:30;100853.59;;;14.57;100.00
16821;BME280;8527;49.740;6.604;2023-09-30T09:11:39;100856.13;;;14.51;100.00
16821;BME280;8527;49.740;6.604;2023-09-30T09:16:37;100865.31;;;14.65;100.00
16821;BME280;8527;49.740;6.604;2023-09-30T09:21:55;100872.13;;;15.00;100.00
16821;BME280;8527;49.740;6.604;2023-09-30T09:27:10;100874.53;;;15.43;97.11
16821;BME280;8527;49.740;6.604;2023-09-30T09:32:13;100876.31;;;15.51;93.84
16821;BME280;8527;49.740;6.604;2023-09-30T09:37:16;100877.59;;;15.72;94.94
16821;BME280;8527;49.740;6.604;2023-09-30T09:42:23;100859.13;;;16.17;92.42
16821;BME280;8527;49.740;6.604;2023-09-30T09:47:23;100862.00;;;16.77;90.75
16821;BME280;8527;49.740;6.604;2023-09-30T09:52:26;100859.19;;;17.09;86.75
16821;BME280;8527;49.740;6.604;2023-09-30T09:57:30;100850.00;;;16.50;87.69
16821;BME280;8527;49.740;6.604;2023-09-30T10:02:29;100844.78;;;17.10;87.59
16821;BME280;8527;49.740;6.604;2023-09-30T10:07:33;100838.53;;;16.94;85.75
16821;BME280;8527;49.740;6.604;2023-09-30T10:12:38;100838.19;;;17.57;84.71
16821;BME280;8527;49.740;6.604;2023-09-30T10:17:57;100828.00;;;17.90;83.67
16821;BME280;8527;49.740;6.604;2023-09-30T10:23:21;100824.94;;;17.41;81.68
16821;BME280;8527;49.740;6.604;2023-09-30T10:28:36;100827.84;;;17.76;82.66
16821;BME280;8527;49.740;6.604;2023-09-30T10:33:36;100829.09;;;17.95;84.32
16821;BME280;8527;49.740;6.604;2023-09-30T10:38:40;100830.13;;;18.38;81.50
16821;BME280;8527;49.740;6.604;2023-09-30T10:43:46;100827.38;;;18.31;79.69
16821;BME280;8527;49.740;6.604;2023-09-30T10:48:44;100822.47;;;18.13;78.60
16821;BME280;8527;49.740;6.604;2023-09-30T10:53:45;100828.56;;;18.50;80.79
16821;BME280;8527;49.740;6.604;2023-09-30T10:58:48;100817.25;;;18.55;77.46
16821;BME280;8527;49.740;6.604;2023-09-30T11:03:47;100813.94;;;18.31;77.37
16821;BME280;8527;49.740;6.604;2023-09-30T11:08:58;100817.34;;;18.68;77.37
16821;BME280;8527;49.740;6.604;2023-09-30T11:14:03;100815.28;;;18.70;75.78
16821;BME280;8527;49.740;6.604;2023-09-30T11:19:01;100814.81;;;18.95;75.57
16821;BME280;8527;49.740;6.604;2023-09-30T11:24:00;100805.41;;;19.06;72.72
16821;BME280;8527;49.740;6.604;2023-09-30T11:29:07;100797.97;;;19.57;72.78
16821;BME280;8527;49.740;6.604;2023-09-30T11:34:13;100800.56;;;19.92;70.73
16821;BME280;8527;49.740;6.604;2023-09-30T11:39:21;100812.94;;;19.73;70.54
16821;BME280;8527;49.740;6.604;2023-09-30T11:44:23;100814.47;;;20.63;71.06
16821;BME280;8527;49.740;6.604;2023-09-30T11:49:29;100802.03;;;20.83;67.04
16821;BME280;8527;49.740;6.604;2023-09-30T11:54:31;100817.25;;;21.22;68.09
16821;BME280;8527;49.740;6.604;2023-09-30T11:59:35;100797.22;;;21.50;66.44
16821;BME280;8527;49.740;6.604;2023-09-30T12:04:38;100794.97;;;21.86;64.72
16821;BME280;8527;49.740;6.604;2023-09-30T12:09:40;100795.81;;;21.80;66.53
16821;BME280;8527;49.740;6.604;2023-09-30T12:14:41;100785.56;;;21.96;67.23
16821;BME280;8527;49.740;6.604;2023-09-30T12:19:40;100793.69;;;21.89;66.16
16821;BME280;8527;49.740;6.604;2023-09-30T12:24:38;100787.00;;;21.59;67.81
16821;BME280;8527;49.740;6.604;2023-09-30T12:29:37;100793.69;;;21.50;67.38
16821;BME280;8527;49.740;6.604;2023-09-30T12:34:41;100790.66;;;21.26;67.81
16821;BME280;8527;49.740;6.604;2023-09-30T12:39:39;100791.94;;;21.24;67.82
16821;BME280;8527;49.740;6.604;2023-09-30T12:44:40;100784.28;;;21.66;65.91
16821;BME280;8527;49.740;6.604;2023-09-30T12:49:41;100771.59;;;21.99;65.21
16821;BME280;8527;49.740;6.604;2023-09-30T12:54:40;100770.22;;;21.50;63.68
16821;BME280;8527;49.740;6.604;2023-09-30T12:59:38;100748.69;;;20.85;61.69
16821;BME280;8527;49.740;6.604;2023-09-30T13:04:37;100746.47;;;21.20;62.26
16821;BME280;8527;49.740;6.604;2023-09-30T13:09:42;100735.84;;;21.64;63.04
16821;BME280;8527;49.740;6.604;2023-09-30T13:14:43;100732.97;;;21.66;61.00
16821;BME280;8527;49.740;6.604;2023-09-30T13:19:41;100732.78;;;21.93;60.56
16821;BME280;8527;49.740;6.604;2023-09-30T13:24:42;100719.09;;;21.88;60.89
16821;BME280;8527;49.740;6.604;2023-09-30T13:29:40;100710.59;;;22.10;60.38
16821;BME280;8527;49.740;6.604;2023-09-30T13:34:42;100714.66;;;21.68;61.99
16821;BME280;8527;49.740;6.604;2023-09-30T13:39:46;100715.66;;;21.99;64.64
16821;BME280;8527;49.740;6.604;2023-09-30T13:44:48;100716.91;;;21.71;66.18
16821;BME280;8527;49.740;6.604;2023-09-30T13:49:46;100712.88;;;21.55;68.05
16821;BME280;8527;49.740;6.604;2023-09-30T13:54:47;100720.41;;;21.40;67.15
16821;BME280;8527;49.740;6.604;2023-09-30T13:59:48;100719.22;;;21.35;68.46
16821;BME280;8527;49.740;6.604;2023-09-30T14:04:47;100716.09;;;21.32;66.97
16821;BME280;8527;49.740;6.604;2023-09-30T14:09:54;100706.31;;;20.99;69.02
16821;BME280;8527;49.740;6.604;2023-09-30T14:14:53;100706.69;;;21.02;69.33
16821;BME280;8527;49.740;6.604;2023-09-30T14:19:52;100692.47;;;21.27;69.34
16821;BME280;8527;49.740;6.604;2023-09-30T14:24:54;100686.97;;;21.08;68.74
16821;BME280;8527;49.740;6.604;2023-09-30T14:29:56;100688.59;;;21.16;69.47
16821;BME280;8527;49.740;6.604;2023-09-30T14:35:00;100686.44;;;20.79;69.03
16821;BME280;8527;49.740;6.604;2023-09-30T14:40:08;100685.81;;;20.84;68.84
16821;BME280;8527;49.740;6.604;2023-09-30T14:45:11;100685.28;;;21.14;67.23
16821;BME280;8527;49.740;6.604;2023-09-30T14:50:09;100688.16;;;21.19;67.71
16821;BME280;8527;49.740;6.604;2023-09-30T14:55:10;100680.25;;;20.65;68.25
16821;BME280;8527;49.740;6.604;2023-09-30T15:00:11;100683.44;;;20.49;68.22
16821;BME280;8527;49.740;6.604;2023-09-30T15:05:13;100688.78;;;20.62;68.17
16821;BME280;8527;49.740;6.604;2023-09-30T15:10:14;100677.94;;;20.89;68.91
16821;BME280;8527;49.740;6.604;2023-09-30T15:15:16;100670.03;;;20.88;68.54
16821;BME280;8527;49.740;6.604;2023-09-30T15:20:18;100664.72;;;20.61;69.48
16821;BME280;8527;49.740;6.604;2023-09-30T15:25:23;100652.03;;;20.75;68.99
16821;BME280;8527;49.740;6.604;2023-09-30T15:30:24;100645.22;;;20.65;69.06
16821;BME280;8527;49.740;6.604;2023-09-30T15:35:22;100631.75;;;20.59;69.10
16821;BME280;8527;49.740;6.604;2023-09-30T15:40:23;100628.13;;;20.33;69.38
16821;BME280;8527;49.740;6.604;2023-09-30T15:45:22;100620.66;;;20.28;70.00
16821;BME280;8527;49.740;6.604;2023-09-30T15:50:20;100622.19;;;20.04;70.12
16821;BME280;8527;49.740;6.604;2023-09-30T15:55:18;100621.53;;;19.88;70.39
16821;BME280;8527;49.740;6.604;2023-09-30T16:00:22;100641.41;;;19.53;71.22
16821;BME280;8527;49.740;6.604;2023-09-30T16:05:21;100649.28;;;19.42;71.95
16821;BME280;8527;49.740;6.604;2023-09-30T16:10:19;100643.66;;;19.36;72.04
16821;BME280;8527;49.740;6.604;2023-09-30T16:15:17;100643.66;;;19.23;72.66
16821;BME280;8527;49.740;6.604;2023-09-30T16:20:22;100640.25;;;18.94;74.89
16821;BME280;8527;49.740;6.604;2023-09-30T16:25:25;100648.03;;;18.82;75.65
16821;BME280;8527;49.740;6.604;2023-09-30T16:30:23;100649.25;;;18.66;77.09
16821;BME280;8527;49.740;6.604;2023-09-30T16:35:25;100663.44;;;18.53;77.18
16821;BME280;8527;49.740;6.604;2023-09-30T16:40:27;100665.63;;;18.42;77.84
16821;BME280;8527;49.740;6.604;2023-09-30T16:45:26;100666.59;;;18.28;77.86
16821;BME280;8527;49.740;6.604;2023-09-30T16:50:27;100659.66;;;17.83;80.04
16821;BME280;8527;49.740;6.604;2023-09-30T16:55:25;100660.91;;;17.88;79.77
16821;BME280;8527;49.740;6.604;2023-09-30T17:00:24;100662.75;;;17.58;81.34
16821;BME280;8527;49.740;6.604;2023-09-30T17:05:22;100657.44;;;17.65;79.53
16821;BME280;8527;49.740;6.604;2023-09-30T17:10:23;100666.75;;;17.69;79.79
16821;BME280;8527;49.740;6.604;2023-09-30T17:15:21;100677.13;;;17.51;80.67
16821;BME280;8527;49.740;6.604;2023-09-30T17:20:20;100672.41;;;17.16;81.07
16821;BME280;8527;49.740;6.604;2023-09-30T17:25:18;100679.66;;;17.00;81.07
16821;BME280;8527;49.740;6.604;2023-09-30T17:30:20;100691.03;;;16.87;81.40
16821;BME280;8527;49.740;6.604;2023-09-30T17:35:25;100675.13;;;16.71;81.65
16821;BME280;8527;49.740;6.604;2023-09-30T17:40:23;100672.53;;;16.93;79.26
16821;BME280;8527;49.740;6.604;2023-09-30T17:45:25;100687.53;;;16.57;82.77
16821;BME280;8527;49.740;6.604;2023-09-30T17:50:24;100689.75;;;16.53;81.49
16821;BME280;8527;49.740;6.604;2023-09-30T17:55:22;100691.78;;;16.51;80.84
16821;BME280;8527;49.740;6.604;2023-09-30T18:00:21;100691.50;;;16.31;82.24
16821;BME280;8527;49.740;6.604;2023-09-30T18:05:25;100682.59;;;16.15;81.92
16821;BME280;8527;49.740;6.604;2023-09-30T18:10:23;100693.50;;;16.14;81.63
16821;BME280;8527;49.740;6.604;2023-09-30T18:15:22;100698.06;;;16.05;82.36
16821;BME280;8527;49.740;6.604;2023-09-30T18:20:32;100712.53;;;15.72;83.72
16821;BME280;8527;49.740;6.604;2023-09-30T18:25:32;100696.03;;;15.69;84.81
16821;BME280;8527;49.740;6.604;2023-09-30T18:30:40;100699.66;;;15.53;84.25
16821;BME280;8527;49.740;6.604;2023-09-30T18:35:44;100711.34;;;15.52;84.92
16821;BME280;8527;49.740;6.604;2023-09-30T18:40:42;100690.44;;;15.55;83.97
16821;BME280;8527;49.740;6.604;2023-09-30T18:45:45;100693.66;;;15.51;83.09
16821;BME280;8527;49.740;6.604;2023-09-30T18:50:48;100704.00;;;15.22;86.00
16821;BME280;8527;49.740;6.604;2023-09-30T18:55:47;100701.88;;;15.09;85.38
16821;BME280;8527;49.740;6.604;2023-09-30T19:00:46;100698.25;;;15.02;86.23
16821;BME280;8527;49.740;6.604;2023-09-30T19:05:48;100693.72;;;15.02;85.65
16821;BME280;8527;49.740;6.604;2023-09-30T19:10:49;100706.03;;;14.72;87.56
16821;BME280;8527;49.740;6.604;2023-09-30T19:15:48;100712.56;;;14.53;88.99
16821;BME280;8527;49.740;6.604;2023-09-30T19:20:51;100706.13;;;14.30;90.13
16821;BME280;8527;49.740;6.604;2023-09-30T19:25:50;100710.09;;;14.43;88.16
16821;BME280;8527;49.740;6.604;2023-09-30T19:30:52;100712.97;;;14.41;89.23
16821;BME280;8527;49.740;6.604;2023-09-30T19:35:53;100714.28;;;14.45;88.19
16821;BME280;8527;49.740;6.604;2023-09-30T19:40:52;100712.47;;;14.29;87.94
16821;BME280;8527;49.740;6.604;2023-09-30T19:45:50;100723.00;;;14.23;89.69
16821;BME280;8527;49.740;6.604;2023-09-30T19:50:59;100720.34;;;14.06;89.48
16821;BME280;8527;49.740;6.604;2023-09-30T19:56:02;100715.16;;;13.96;90.56
16821;BME280;8527;49.740;6.604;2023-09-30T20:01:06;100721.00;;;13.91;91.57
16821;BME280;8527;49.740;6.604;2023-09-30T20:06:22;100724.31;;;13.77;90.98
16821;BME280;8527;49.740;6.604;2023-09-30T20:11:22;100732.16;;;13.78;91.39
16821;BME280;8527;49.740;6.604;2023-09-30T20:16:23;100736.00;;;13.68;92.12
16821;BME280;8527;49.740;6.604;2023-09-30T20:21:27;100737.00;;;13.67;90.46
16821;BME280;8527;49.740;6.604;2023-09-30T20:26:26;100729.81;;;13.59;89.69
16821;BME280;8527;49.740;6.604;2023-09-30T20:31:30;100733.47;;;13.49;90.75
16821;BME280;8527;49.740;6.604;2023-09-30T20:36:34;100728.63;;;13.45;90.49
16821;BME280;8527;49.740;6.604;2023-09-30T20:41:33;100725.56;;;13.40;91.28
16821;BME280;8527;49.740;6.604;2023-09-30T20:46:32;100724.06;;;13.37;93.66
16821;BME280;8527;49.740;6.604;2023-09-30T20:51:37;100721.84;;;13.24;91.90
16821;BME280;8527;49.740;6.604;2023-09-30T20:56:35;100719.34;;;13.14;92.87
16821;BME280;8527;49.740;6.604;2023-09-30T21:01:34;100711.97;;;13.00;92.70
16821;BME280;8527;49.740;6.604;2023-09-30T21:06:36;100711.09;;;12.99;93.37
16821;BME280;8527;49.740;6.604;2023-09-30T21:11:41;100708.25;;;12.84;94.13
16821;BME280;8527;49.740;6.604;2023-09-30T21:16:40;100710.19;;;12.82;93.68
16821;BME280;8527;49.740;6.604;2023-09-30T21:21:41;100716.91;;;12.86;91.43
16821;BME280;8527;49.740;6.604;2023-09-30T21:26:39;100725.16;;;12.75;93.88
16821;BME280;8527;49.740;6.604;2023-09-30T21:31:37;100733.81;;;12.77;94.30
16821;BME280;8527;49.740;6.604;2023-09-30T21:36:36;100736.22;;;12.62;94.55
16821;BME280;8527;49.740;6.604;2023-09-30T21:41:42;100728.56;;;12.59;94.50
16821;BME280;8527;49.740;6.604;2023-09-30T21:46:44;100730.19;;;12.51;94.17
16821;BME280;8527;49.740;6.604;2023-09-30T21:51:49;100727.16;;;12.46;95.15
16821;BME280;8527;49.740;6.604;2023-09-30T21:56:50;100721.19;;;12.26;94.24
16821;BME280;8527;49.740;6.604;2023-09-30T22:01:49;100731.06;;;12.34;94.81
16821;BME280;8527;49.740;6.604;2023-09-30T22:06:54;100742.38;;;12.36;95.95
16821;BME280;8527;49.740;6.604;2023-09-30T22:12:01;100740.88;;;12.33;94.98
16821;BME280;8527;49.740;6.604;2023-09-30T22:17:00;100733.16;;;12.22;96.21
16821;BME280;8527;49.740;6.604;2023-09-30T22:21:58;100727.22;;;12.10;95.64
16821;BME280;8527;49.740;6.604;2023-09-30T22:27:06;100727.22;;;12.10;96.61
16821;BME280;8527;49.740;6.604;2023-09-30T22:32:06;100733.59;;;11.99;96.70
16821;BME280;8527;49.740;6.604;2023-09-30T22:37:05;100739.22;;;11.96;98.11
16821;BME280;8527;49.740;6.604;2023-09-30T22:42:13;100743.72;;;11.95;95.89
16821;BME280;8527;49.740;6.604;2023-09-30T22:47:13;100741.97;;;12.04;96.74
16821;BME280;8527;49.740;6.604;2023-09-30T22:52:11;100748.34;;;11.93;96.13
16821;BME280;8527;49.740;6.604;2023-09-30T22:57:09;100740.28;;;11.85;95.87
16821;BME280;8527;49.740;6.604;2023-09-30T23:02:20;100750.25;;;11.83;96.60
16821;BME280;8527;49.740;6.604;2023-09-30T23:07:22;100748.94;;;11.69;96.83
16821;BME280;8527;49.740;6.604;2023-09-30T23:12:25;100754.31;;;11.59;96.70
16821;BME280;8527;49.740;6.604;2023-09-30T23:17:26;100755.47;;;11.57;97.97
16821;BME280;8527;49.740;6.604;2023-09-30T23:22:28;100742.09;;;11.48;97.09
16821;BME280;8527;49.740;6.604;2023-09-30T23:27:26;100747.56;;;11.47;97.38
16821;BME280;8527;49.740;6.604;2023-09-30T23:32:27;100734.44;;;11.45;98.36
16821;BME280;8527;49.740;6.604;2023-09-30T23:37:25;100745.75;;;11.47;97.64
16821;BME280;8527;49.740;6.604;2023-09-30T23:42:27;100734.25;;;11.47;97.34
16821;BME280;8527;49.740;6.604;2023-09-30T23:47:30;100742.31;;;11.37;99.25
16821;BME280;8527;49.740;6.604;2023-09-30T23:52:32;100749.03;;;11.31;99.50
16821;BME280;8527;49.740;6.604;2023-09-30T23:57:39;100747.00;;;11.25;99.11
